sensor_id;sensor_type;location;lat;lon;timestamp;P1;durP1;ratioP1;P2;durP2;ratioP2
16524;SDS011;8375;33.594;-117.718;2023-08-24T00:01:30;3.20;;;2.40;;
16524;SDS011;8375;33.594;-117.718;2023-08-24T00:03:59;2.75;;;1.92;;
16524;SDS011;8375;33.594;-117.718;2023-08-24T00:06:31;3.10;;;2.50;;
16524;SDS011;8375;33.594;-117.718;2023-08-24T00:09:01;5.68;;;2.42;;
16524;SDS011;8375;33.594;-117.718;2023-08-24T00:11:31;4.50;;;2.47;;
16524;SDS011;8375;33.594;-117.718;2023-08-24T00:14:00;3.25;;;2.00;;
16524;SDS011;8375;33.594;-117.718;2023-08-24T00:16:28;3.67;;;2.20;;
16524;SDS011;8375;33.594;-117.718;2023-08-24T00:18:57;4.53;;;2.40;;
16524;SDS011;8375;33.594;-117.718;2023-08-24T00:21:26;2.17;;;1.92;;
16524;SDS011;8375;33.594;-117.718;2023-08-24T00:23:54;4.65;;;2.60;;
16524;SDS011;8375;33.594;-117.718;2023-08-24T00:26:25;4.32;;;2.80;;
16524;SDS011;8375;33.594;-117.718;2023-08-24T00:28:53;5.75;;;3.00;;
16524;SDS011;8375;33.594;-117.718;2023-08-24T00:31:22;6.88;;;2.75;;
16524;SDS011;8375;33.594;-117.718;2023-08-24T00:33:51;4.60;;;2.53;;
16524;SDS011;8375;33.594;-117.718;2023-08-24T00:36:20;5.75;;;2.70;;
16524;SDS011;8375;33.594;-117.718;2023-08-24T00:38:49;3.95;;;2.67;;
16524;SDS011;8375;33.594;-117.718;2023-08-24T00:41:18;3.60;;;3.05;;
16524;SDS011;8375;33.594;-117.718;2023-08-24T00:43:50;3.50;;;2.70;;
16524;SDS011;8375;33.594;-117.718;2023-08-24T00:46:19;6.03;;;3.60;;
16524;SDS011;8375;33.594;-117.718;2023-08-24T00:48:48;4.40;;;3.08;;
16524;SDS011;8375;33.594;-117.718;2023-08-24T00:51:17;5.55;;;3.30;;
16524;SDS011;8375;33.594;-117.718;2023-08-24T00:53:46;6.72;;;3.53;;
16524;SDS011;8375;33.594;-117.718;2023-08-24T00:56:15;4.72;;;2.92;;
16524;SDS011;8375;33.594;-117.718;2023-08-24T00:58:45;7.35;;;3.70;;
16524;SDS011;8375;33.594;-117.718;2023-08-24T01:01:17;6.70;;;3.85;;
16524;SDS011;8375;33.594;-117.718;2023-08-24T01:03:46;4.25;;;3.35;;
16524;SDS011;8375;33.594;-117.718;2023-08-24T01:06:15;8.82;;;3.92;;
16524;SDS011;8375;33.594;-117.718;2023-08-24T01:08:43;5.07;;;3.53;;
16524;SDS011;8375;33.594;-117.718;2023-08-24T01:11:14;5.00;;;3.13;;
16524;SDS011;8375;33.594;-117.718;2023-08-24T01:13:58;7.97;;;3.88;;
16524;SDS011;8375;33.594;-117.718;2023-08-24T01:16:33;9.63;;;4.13;;
16524;SDS011;8375;33.594;-117.718;2023-08-24T01:19:07;11.98;;;4.40;;
16524;SDS011;8375;33.594;-117.718;2023-08-24T01:21:48;6.25;;;4.10;;
16524;SDS011;8375;33.594;-117.718;2023-08-24T01:24:18;6.38;;;4.22;;
16524;SDS011;8375;33.594;-117.718;2023-08-24T01:27:00;8.77;;;3.83;;
16524;SDS011;8375;33.594;-117.718;2023-08-24T01:29:29;6.72;;;3.70;;
16524;SDS011;8375;33.594;-117.718;2023-08-24T01:31:58;6.28;;;3.67;;
16524;SDS011;8375;33.594;-117.718;2023-08-24T01:34:27;5.32;;;3.83;;
16524;SDS011;8375;33.594;-117.718;2023-08-24T01:36:55;9.73;;;3.42;;
16524;SDS011;8375;33.594;-117.718;2023-08-24T01:39:26;5.07;;;3.35;;
16524;SDS011;8375;33.594;-117.718;2023-08-24T01:42:01;7.68;;;3.85;;
16524;SDS011;8375;33.594;-117.718;2023-08-24T01:44:33;4.30;;;3.30;;
16524;SDS011;8375;33.594;-117.718;2023-08-24T01:47:05;6.38;;;3.78;;
16524;SDS011;8375;33.594;-117.718;2023-08-24T01:49:37;7.53;;;4.10;;
16524;SDS011;8375;33.594;-117.718;2023-08-24T01:52:08;7.28;;;4.43;;
16524;SDS011;8375;33.594;-117.718;2023-08-24T01:54:37;9.43;;;4.28;;
16524;SDS011;8375;33.594;-117.718;2023-08-24T01:57:08;5.22;;;4.05;;
16524;SDS011;8375;33.594;-117.718;2023-08-24T01:59:37;9.48;;;4.57;;
16524;SDS011;8375;33.594;-117.718;2023-08-24T02:02:06;7.80;;;4.78;;
16524;SDS011;8375;33.594;-117.718;2023-08-24T02:04:35;6.43;;;4.07;;
16524;SDS011;8375;33.594;-117.718;2023-08-24T02:07:03;7.07;;;4.28;;
16524;SDS011;8375;33.594;-117.718;2023-08-24T02:09:32;5.45;;;4.85;;
16524;SDS011;8375;33.594;-117.718;2023-08-24T02:12:01;9.02;;;4.78;;
16524;SDS011;8375;33.594;-117.718;2023-08-24T02:14:31;8.02;;;4.55;;
16524;SDS011;8375;33.594;-117.718;2023-08-24T02:16:59;8.15;;;4.78;;
16524;SDS011;8375;33.594;-117.718;2023-08-24T02:19:29;8.25;;;5.05;;
16524;SDS011;8375;33.594;-117.718;2023-08-24T02:21:58;7.53;;;5.28;;
16524;SDS011;8375;33.594;-117.718;2023-08-24T02:24:27;6.35;;;4.40;;
16524;SDS011;8375;33.594;-117.718;2023-08-24T02:26:56;9.65;;;4.63;;
16524;SDS011;8375;33.594;-117.718;2023-08-24T02:29:24;10.80;;;4.72;;
16524;SDS011;8375;33.594;-117.718;2023-08-24T02:31:55;7.70;;;4.80;;
16524;SDS011;8375;33.594;-117.718;2023-08-24T02:34:23;8.32;;;4.97;;
16524;SDS011;8375;33.594;-117.718;2023-08-24T02:36:52;11.82;;;5.03;;
16524;SDS011;8375;33.594;-117.718;2023-08-24T02:39:21;7.25;;;5.22;;
16524;SDS011;8375;33.594;-117.718;2023-08-24T02:41:49;9.85;;;5.18;;
16524;SDS011;8375;33.594;-117.718;2023-08-24T02:44:18;10.05;;;5.93;;
16524;SDS011;8375;33.594;-117.718;2023-08-24T02:46:47;11.23;;;5.25;;
16524;SDS011;8375;33.594;-117.718;2023-08-24T02:49:18;9.43;;;4.93;;
16524;SDS011;8375;33.594;-117.718;2023-08-24T02:51:46;10.45;;;5.63;;
16524;SDS011;8375;33.594;-117.718;2023-08-24T02:54:15;12.63;;;6.13;;
16524;SDS011;8375;33.594;-117.718;2023-08-24T02:56:44;9.95;;;5.80;;
16524;SDS011;8375;33.594;-117.718;2023-08-24T02:59:13;8.95;;;5.80;;
16524;SDS011;8375;33.594;-117.718;2023-08-24T03:01:41;9.50;;;5.85;;
16524;SDS011;8375;33.594;-117.718;2023-08-24T03:04:10;9.18;;;5.60;;
16524;SDS011;8375;33.594;-117.718;2023-08-24T03:06:40;10.85;;;6.30;;
16524;SDS011;8375;33.594;-117.718;2023-08-24T03:09:11;9.00;;;5.32;;
16524;SDS011;8375;33.594;-117.718;2023-08-24T03:11:40;10.07;;;5.50;;
16524;SDS011;8375;33.594;-117.718;2023-08-24T03:14:09;9.25;;;5.32;;
16524;SDS011;8375;33.594;-117.718;2023-08-24T03:16:38;9.20;;;5.63;;
16524;SDS011;8375;33.594;-117.718;2023-08-24T03:19:06;10.70;;;5.25;;
16524;SDS011;8375;33.594;-117.718;2023-08-24T03:21:35;12.10;;;5.50;;
16524;SDS011;8375;33.594;-117.718;2023-08-24T03:24:06;10.68;;;5.35;;
16524;SDS011;8375;33.594;-117.718;2023-08-24T03:26:34;10.23;;;5.93;;
16524;SDS011;8375;33.594;-117.718;2023-08-24T03:29:03;9.55;;;5.53;;
16524;SDS011;8375;33.594;-117.718;2023-08-24T03:31:32;11.27;;;5.13;;
16524;SDS011;8375;33.594;-117.718;2023-08-24T03:34:00;10.25;;;5.95;;
16524;SDS011;8375;33.594;-117.718;2023-08-24T03:36:30;12.13;;;5.85;;
16524;SDS011;8375;33.594;-117.718;2023-08-24T03:38:58;8.93;;;5.25;;
16524;SDS011;8375;33.594;-117.718;2023-08-24T03:41:29;10.63;;;5.40;;
16524;SDS011;8375;33.594;-117.718;2023-08-24T03:43:59;9.18;;;5.63;;
16524;SDS011;8375;33.594;-117.718;2023-08-24T03:46:28;9.93;;;5.53;;
16524;SDS011;8375;33.594;-117.718;2023-08-24T03:48:57;11.30;;;5.82;;
16524;SDS011;8375;33.594;-117.718;2023-08-24T03:51:26;10.32;;;5.30;;
16524;SDS011;8375;33.594;-117.718;2023-08-24T03:53:55;10.73;;;6.10;;
16524;SDS011;8375;33.594;-117.718;2023-08-24T03:56:24;11.77;;;5.93;;
16524;SDS011;8375;33.594;-117.718;2023-08-24T03:58:55;9.30;;;5.80;;
16524;SDS011;8375;33.594;-117.718;2023-08-24T04:01:23;10.27;;;5.50;;
16524;SDS011;8375;33.594;-117.718;2023-08-24T04:03:52;10.15;;;5.93;;
16524;SDS011;8375;33.594;-117.718;2023-08-24T04:06:21;12.43;;;5.60;;
16524;SDS011;8375;33.594;-117.718;2023-08-24T04:08:50;11.15;;;5.57;;
16524;SDS011;8375;33.594;-117.718;2023-08-24T04:11:19;10.57;;;6.43;;
16524;SDS011;8375;33.594;-117.718;2023-08-24T04:13:48;12.15;;;5.32;;
16524;SDS011;8375;33.594;-117.718;2023-08-24T04:16:18;14.15;;;6.57;;
16524;SDS011;8375;33.594;-117.718;2023-08-24T04:18:47;8.05;;;5.53;;
16524;SDS011;8375;33.594;-117.718;2023-08-24T04:21:16;11.20;;;5.72;;
16524;SDS011;8375;33.594;-117.718;2023-08-24T04:23:45;10.10;;;5.47;;
16524;SDS011;8375;33.594;-117.718;2023-08-24T04:26:14;10.63;;;5.55;;
16524;SDS011;8375;33.594;-117.718;2023-08-24T04:28:43;12.35;;;5.82;;
16524;SDS011;8375;33.594;-117.718;2023-08-24T04:31:12;9.32;;;5.43;;
16524;SDS011;8375;33.594;-117.718;2023-08-24T04:33:42;8.27;;;5.75;;
16524;SDS011;8375;33.594;-117.718;2023-08-24T04:36:15;11.02;;;5.68;;
16524;SDS011;8375;33.594;-117.718;2023-08-24T04:38:44;9.88;;;5.78;;
16524;SDS011;8375;33.594;-117.718;2023-08-24T04:41:13;11.00;;;5.55;;
16524;SDS011;8375;33.594;-117.718;2023-08-24T04:43:41;9.77;;;5.35;;
16524;SDS011;8375;33.594;-117.718;2023-08-24T04:46:10;8.50;;;5.38;;
16524;SDS011;8375;33.594;-117.718;2023-08-24T04:48:39;12.75;;;5.60;;
16524;SDS011;8375;33.594;-117.718;2023-08-24T04:51:09;12.90;;;6.13;;
16524;SDS011;8375;33.594;-117.718;2023-08-24T04:53:38;9.80;;;5.50;;
16524;SDS011;8375;33.594;-117.718;2023-08-24T04:56:07;9.68;;;5.63;;
16524;SDS011;8375;33.594;-117.718;2023-08-24T04:58:35;10.35;;;5.50;;
16524;SDS011;8375;33.594;-117.718;2023-08-24T05:01:04;9.48;;;6.07;;
16524;SDS011;8375;33.594;-117.718;2023-08-24T05:03:33;7.75;;;5.65;;
16524;SDS011;8375;33.594;-117.718;2023-08-24T05:06:02;10.98;;;5.68;;
16524;SDS011;8375;33.594;-117.718;2023-08-24T05:08:33;11.32;;;5.93;;
16524;SDS011;8375;33.594;-117.718;2023-08-24T05:11:01;10.52;;;5.38;;
16524;SDS011;8375;33.594;-117.718;2023-08-24T05:13:39;9.90;;;5.63;;
16524;SDS011;8375;33.594;-117.718;2023-08-24T05:16:09;10.90;;;6.10;;
16524;SDS011;8375;33.594;-117.718;2023-08-24T05:18:38;11.88;;;5.60;;
16524;SDS011;8375;33.594;-117.718;2023-08-24T05:21:07;10.05;;;5.72;;
16524;SDS011;8375;33.594;-117.718;2023-08-24T05:23:37;7.47;;;5.20;;
16524;SDS011;8375;33.594;-117.718;2023-08-24T05:26:06;11.80;;;5.57;;
16524;SDS011;8375;33.594;-117.718;2023-08-24T05:28:34;8.60;;;5.68;;
16524;SDS011;8375;33.594;-117.718;2023-08-24T05:31:03;10.75;;;6.07;;
16524;SDS011;8375;33.594;-117.718;2023-08-24T05:33:32;10.23;;;5.55;;
16524;SDS011;8375;33.594;-117.718;2023-08-24T05:36:01;10.75;;;6.10;;
16524;SDS011;8375;33.594;-117.718;2023-08-24T05:38:29;10.45;;;5.78;;
16524;SDS011;8375;33.594;-117.718;2023-08-24T05:41:00;11.48;;;5.85;;
16524;SDS011;8375;33.594;-117.718;2023-08-24T05:43:28;11.13;;;6.32;;
16524;SDS011;8375;33.594;-117.718;2023-08-24T05:45:57;11.65;;;5.93;;
16524;SDS011;8375;33.594;-117.718;2023-08-24T05:48:26;10.10;;;6.15;;
16524;SDS011;8375;33.594;-117.718;2023-08-24T05:50:54;7.90;;;5.25;;
16524;SDS011;8375;33.594;-117.718;2023-08-24T05:53:23;10.38;;;6.20;;
16524;SDS011;8375;33.594;-117.718;2023-08-24T05:55:52;7.60;;;5.35;;
16524;SDS011;8375;33.594;-117.718;2023-08-24T05:58:27;9.25;;;5.55;;
16524;SDS011;8375;33.594;-117.718;2023-08-24T06:00:57;11.13;;;6.63;;
16524;SDS011;8375;33.594;-117.718;2023-08-24T06:03:26;14.07;;;6.25;;
16524;SDS011;8375;33.594;-117.718;2023-08-24T06:06:00;10.27;;;6.57;;
16524;SDS011;8375;33.594;-117.718;2023-08-24T06:08:33;9.57;;;6.00;;
16524;SDS011;8375;33.594;-117.718;2023-08-24T06:11:03;11.50;;;6.57;;
16524;SDS011;8375;33.594;-117.718;2023-08-24T06:13:52;11.98;;;6.55;;
16524;SDS011;8375;33.594;-117.718;2023-08-24T06:16:20;8.77;;;6.15;;
16524;SDS011;8375;33.594;-117.718;2023-08-24T06:18:49;11.55;;;6.70;;
16524;SDS011;8375;33.594;-117.718;2023-08-24T06:21:17;13.07;;;6.65;;
16524;SDS011;8375;33.594;-117.718;2023-08-24T06:23:46;12.40;;;6.05;;
16524;SDS011;8375;33.594;-117.718;2023-08-24T06:26:15;13.47;;;7.10;;
16524;SDS011;8375;33.594;-117.718;2023-08-24T06:28:45;13.30;;;6.83;;
16524;SDS011;8375;33.594;-117.718;2023-08-24T06:31:15;10.18;;;6.03;;
16524;SDS011;8375;33.594;-117.718;2023-08-24T06:33:44;9.67;;;6.30;;
16524;SDS011;8375;33.594;-117.718;2023-08-24T06:36:13;10.83;;;6.40;;
16524;SDS011;8375;33.594;-117.718;2023-08-24T06:38:42;11.87;;;6.87;;
16524;SDS011;8375;33.594;-117.718;2023-08-24T06:41:10;13.57;;;6.73;;
16524;SDS011;8375;33.594;-117.718;2023-08-24T06:43:39;15.67;;;6.70;;
16524;SDS011;8375;33.594;-117.718;2023-08-24T06:46:08;13.50;;;6.90;;
16524;SDS011;8375;33.594;-117.718;2023-08-24T06:48:38;15.30;;;8.03;;
16524;SDS011;8375;33.594;-117.718;2023-08-24T06:51:07;14.63;;;7.67;;
16524;SDS011;8375;33.594;-117.718;2023-08-24T06:53:36;15.03;;;7.70;;
16524;SDS011;8375;33.594;-117.718;2023-08-24T06:56:05;16.23;;;7.67;;
16524;SDS011;8375;33.594;-117.718;2023-08-24T06:58:34;13.33;;;7.53;;
16524;SDS011;8375;33.594;-117.718;2023-08-24T07:01:08;15.87;;;8.07;;
16524;SDS011;8375;33.594;-117.718;2023-08-24T07:03:40;17.67;;;8.10;;
16524;SDS011;8375;33.594;-117.718;2023-08-24T07:06:09;16.10;;;8.60;;
16524;SDS011;8375;33.594;-117.718;2023-08-24T07:08:38;14.03;;;7.83;;
16524;SDS011;8375;33.594;-117.718;2023-08-24T07:11:07;18.77;;;8.63;;
16524;SDS011;8375;33.594;-117.718;2023-08-24T07:13:36;12.37;;;7.90;;
16524;SDS011;8375;33.594;-117.718;2023-08-24T07:16:04;14.97;;;8.43;;
16524;SDS011;8375;33.594;-117.718;2023-08-24T07:18:33;18.83;;;9.27;;
16524;SDS011;8375;33.594;-117.718;2023-08-24T07:21:03;16.97;;;9.27;;
16524;SDS011;8375;33.594;-117.718;2023-08-24T07:23:32;18.13;;;8.80;;
16524;SDS011;8375;33.594;-117.718;2023-08-24T07:26:01;19.00;;;8.70;;
16524;SDS011;8375;33.594;-117.718;2023-08-24T07:28:31;19.00;;;10.03;;
16524;SDS011;8375;33.594;-117.718;2023-08-24T07:31:06;18.13;;;9.40;;
16524;SDS011;8375;33.594;-117.718;2023-08-24T07:33:36;18.47;;;9.40;;
16524;SDS011;8375;33.594;-117.718;2023-08-24T07:36:07;14.53;;;8.27;;
16524;SDS011;8375;33.594;-117.718;2023-08-24T07:38:36;17.47;;;9.47;;
16524;SDS011;8375;33.594;-117.718;2023-08-24T07:41:07;19.70;;;10.17;;
16524;SDS011;8375;33.594;-117.718;2023-08-24T07:43:37;20.03;;;10.23;;
16524;SDS011;8375;33.594;-117.718;2023-08-24T07:46:05;19.60;;;10.43;;
16524;SDS011;8375;33.594;-117.718;2023-08-24T07:48:34;19.70;;;9.80;;
16524;SDS011;8375;33.594;-117.718;2023-08-24T07:51:03;22.60;;;10.63;;
16524;SDS011;8375;33.594;-117.718;2023-08-24T07:53:33;17.87;;;10.57;;
16524;SDS011;8375;33.594;-117.718;2023-08-24T07:56:02;19.00;;;9.67;;
16524;SDS011;8375;33.594;-117.718;2023-08-24T07:58:31;16.30;;;10.20;;
16524;SDS011;8375;33.594;-117.718;2023-08-24T08:01:00;18.77;;;10.60;;
16524;SDS011;8375;33.594;-117.718;2023-08-24T08:03:29;21.07;;;10.47;;
16524;SDS011;8375;33.594;-117.718;2023-08-24T08:05:57;21.47;;;11.47;;
16524;SDS011;8375;33.594;-117.718;2023-08-24T08:08:26;20.30;;;11.17;;
16524;SDS011;8375;33.594;-117.718;2023-08-24T08:10:59;15.73;;;10.13;;
16524;SDS011;8375;33.594;-117.718;2023-08-24T08:13:29;19.20;;;10.93;;
16524;SDS011;8375;33.594;-117.718;2023-08-24T08:16:01;15.30;;;10.00;;
16524;SDS011;8375;33.594;-117.718;2023-08-24T08:18:31;20.63;;;11.40;;
16524;SDS011;8375;33.594;-117.718;2023-08-24T08:21:00;18.47;;;10.60;;
16524;SDS011;8375;33.594;-117.718;2023-08-24T08:23:29;21.90;;;11.40;;
16524;SDS011;8375;33.594;-117.718;2023-08-24T08:25:59;17.50;;;10.93;;
16524;SDS011;8375;33.594;-117.718;2023-08-24T08:28:28;20.83;;;11.27;;
16524;SDS011;8375;33.594;-117.718;2023-08-24T08:30:59;20.60;;;12.00;;
16524;SDS011;8375;33.594;-117.718;2023-08-24T08:33:28;16.33;;;11.30;;
16524;SDS011;8375;33.594;-117.718;2023-08-24T08:35:57;18.63;;;11.73;;
16524;SDS011;8375;33.594;-117.718;2023-08-24T08:38:25;21.13;;;12.23;;
16524;SDS011;8375;33.594;-117.718;2023-08-24T08:40:54;21.63;;;13.07;;
16524;SDS011;8375;33.594;-117.718;2023-08-24T08:43:30;22.73;;;12.63;;
16524;SDS011;8375;33.594;-117.718;2023-08-24T08:45:59;18.27;;;11.53;;
16524;SDS011;8375;33.594;-117.718;2023-08-24T08:48:28;21.87;;;12.27;;
16524;SDS011;8375;33.594;-117.718;2023-08-24T08:51:00;19.10;;;11.80;;
16524;SDS011;8375;33.594;-117.718;2023-08-24T08:53:29;17.47;;;11.83;;
16524;SDS011;8375;33.594;-117.718;2023-08-24T08:55:59;19.30;;;12.27;;
16524;SDS011;8375;33.594;-117.718;2023-08-24T08:58:33;15.90;;;11.80;;
16524;SDS011;8375;33.594;-117.718;2023-08-24T09:01:02;20.33;;;11.90;;
16524;SDS011;8375;33.594;-117.718;2023-08-24T09:03:32;19.43;;;12.30;;
16524;SDS011;8375;33.594;-117.718;2023-08-24T09:06:03;18.13;;;12.83;;
16524;SDS011;8375;33.594;-117.718;2023-08-24T09:08:32;19.80;;;12.10;;
16524;SDS011;8375;33.594;-117.718;2023-08-24T09:11:01;18.43;;;11.87;;
16524;SDS011;8375;33.594;-117.718;2023-08-24T09:13:35;20.93;;;12.40;;
16524;SDS011;8375;33.594;-117.718;2023-08-24T09:16:04;22.90;;;13.30;;
16524;SDS011;8375;33.594;-117.718;2023-08-24T09:18:34;21.50;;;12.63;;
16524;SDS011;8375;33.594;-117.718;2023-08-24T09:21:08;19.60;;;12.77;;
16524;SDS011;8375;33.594;-117.718;2023-08-24T09:23:37;21.03;;;12.83;;
16524;SDS011;8375;33.594;-117.718;2023-08-24T09:26:10;22.57;;;12.67;;
16524;SDS011;8375;33.594;-117.718;2023-08-24T09:28:43;24.13;;;12.90;;
16524;SDS011;8375;33.594;-117.718;2023-08-24T09:31:12;21.73;;;13.23;;
16524;SDS011;8375;33.594;-117.718;2023-08-24T09:33:42;20.50;;;13.13;;
16524;SDS011;8375;33.594;-117.718;2023-08-24T09:36:12;21.03;;;12.43;;
16524;SDS011;8375;33.594;-117.718;2023-08-24T09:38:46;20.27;;;12.97;;
16524;SDS011;8375;33.594;-117.718;2023-08-24T09:41:16;25.33;;;14.87;;
16524;SDS011;8375;33.594;-117.718;2023-08-24T09:43:46;20.53;;;12.77;;
16524;SDS011;8375;33.594;-117.718;2023-08-24T09:46:17;20.53;;;12.93;;
16524;SDS011;8375;33.594;-117.718;2023-08-24T09:48:53;23.90;;;13.40;;
16524;SDS011;8375;33.594;-117.718;2023-08-24T09:51:23;21.70;;;12.80;;
16524;SDS011;8375;33.594;-117.718;2023-08-24T09:53:56;20.73;;;13.57;;
16524;SDS011;8375;33.594;-117.718;2023-08-24T09:56:26;18.47;;;13.07;;
16524;SDS011;8375;33.594;-117.718;2023-08-24T09:58:58;19.87;;;13.50;;
16524;SDS011;8375;33.594;-117.718;2023-08-24T10:01:33;23.20;;;14.13;;
16524;SDS011;8375;33.594;-117.718;2023-08-24T10:04:03;23.57;;;12.80;;
16524;SDS011;8375;33.594;-117.718;2023-08-24T10:06:35;24.27;;;12.73;;
16524;SDS011;8375;33.594;-117.718;2023-08-24T10:09:07;23.30;;;13.97;;
16524;SDS011;8375;33.594;-117.718;2023-08-24T10:11:40;24.00;;;13.33;;
16524;SDS011;8375;33.594;-117.718;2023-08-24T10:14:27;23.00;;;12.60;;
16524;SDS011;8375;33.594;-117.718;2023-08-24T10:16:59;25.20;;;13.20;;
16524;SDS011;8375;33.594;-117.718;2023-08-24T10:19:28;22.33;;;13.33;;
16524;SDS011;8375;33.594;-117.718;2023-08-24T10:21:57;25.27;;;12.40;;
16524;SDS011;8375;33.594;-117.718;2023-08-24T10:24:29;20.57;;;12.50;;
16524;SDS011;8375;33.594;-117.718;2023-08-24T10:26:59;27.00;;;13.13;;
16524;SDS011;8375;33.594;-117.718;2023-08-24T10:29:31;27.13;;;13.43;;
16524;SDS011;8375;33.594;-117.718;2023-08-24T10:32:00;21.27;;;12.50;;
16524;SDS011;8375;33.594;-117.718;2023-08-24T10:34:30;20.73;;;11.93;;
16524;SDS011;8375;33.594;-117.718;2023-08-24T10:37:06;22.43;;;13.37;;
16524;SDS011;8375;33.594;-117.718;2023-08-24T10:39:37;18.63;;;13.33;;
16524;SDS011;8375;33.594;-117.718;2023-08-24T10:42:11;19.03;;;12.23;;
16524;SDS011;8375;33.594;-117.718;2023-08-24T10:44:43;21.47;;;12.40;;
16524;SDS011;8375;33.594;-117.718;2023-08-24T10:47:13;20.27;;;12.93;;
16524;SDS011;8375;33.594;-117.718;2023-08-24T10:49:43;22.47;;;12.63;;
16524;SDS011;8375;33.594;-117.718;2023-08-24T10:52:24;20.07;;;12.50;;
16524;SDS011;8375;33.594;-117.718;2023-08-24T10:54:57;23.67;;;13.70;;
16524;SDS011;8375;33.594;-117.718;2023-08-24T10:57:35;23.90;;;12.53;;
16524;SDS011;8375;33.594;-117.718;2023-08-24T11:00:07;23.47;;;13.73;;
16524;SDS011;8375;33.594;-117.718;2023-08-24T11:02:43;20.77;;;13.60;;
16524;SDS011;8375;33.594;-117.718;2023-08-24T11:05:17;23.80;;;12.97;;
16524;SDS011;8375;33.594;-117.718;2023-08-24T11:07:54;24.07;;;12.93;;
16524;SDS011;8375;33.594;-117.718;2023-08-24T11:10:24;25.73;;;14.03;;
16524;SDS011;8375;33.594;-117.718;2023-08-24T11:13:11;22.23;;;13.47;;
16524;SDS011;8375;33.594;-117.718;2023-08-24T11:15:44;21.20;;;11.93;;
16524;SDS011;8375;33.594;-117.718;2023-08-24T11:18:20;18.67;;;13.20;;
16524;SDS011;8375;33.594;-117.718;2023-08-24T11:20:51;21.97;;;13.50;;
16524;SDS011;8375;33.594;-117.718;2023-08-24T11:23:22;22.90;;;13.57;;
16524;SDS011;8375;33.594;-117.718;2023-08-24T11:25:52;23.73;;;12.53;;
16524;SDS011;8375;33.594;-117.718;2023-08-24T11:28:22;22.27;;;12.83;;
16524;SDS011;8375;33.594;-117.718;2023-08-24T11:30:54;25.10;;;13.50;;
16524;SDS011;8375;33.594;-117.718;2023-08-24T11:33:27;25.20;;;13.17;;
16524;SDS011;8375;33.594;-117.718;2023-08-24T11:35:56;21.93;;;12.63;;
16524;SDS011;8375;33.594;-117.718;2023-08-24T11:38:35;23.00;;;14.10;;
16524;SDS011;8375;33.594;-117.718;2023-08-24T11:41:12;20.17;;;12.93;;
16524;SDS011;8375;33.594;-117.718;2023-08-24T11:43:42;18.50;;;12.57;;
16524;SDS011;8375;33.594;-117.718;2023-08-24T11:46:12;22.87;;;12.67;;
16524;SDS011;8375;33.594;-117.718;2023-08-24T11:48:43;21.50;;;11.87;;
16524;SDS011;8375;33.594;-117.718;2023-08-24T11:51:12;18.97;;;12.43;;
16524;SDS011;8375;33.594;-117.718;2023-08-24T11:53:41;16.90;;;12.17;;
16524;SDS011;8375;33.594;-117.718;2023-08-24T11:56:11;19.20;;;12.57;;
16524;SDS011;8375;33.594;-117.718;2023-08-24T11:58:40;19.47;;;12.43;;
16524;SDS011;8375;33.594;-117.718;2023-08-24T12:01:09;22.50;;;13.10;;
16524;SDS011;8375;33.594;-117.718;2023-08-24T12:03:40;22.77;;;12.97;;
16524;SDS011;8375;33.594;-117.718;2023-08-24T12:06:12;21.47;;;13.17;;
16524;SDS011;8375;33.594;-117.718;2023-08-24T12:08:41;14.77;;;11.33;;
16524;SDS011;8375;33.594;-117.718;2023-08-24T12:11:16;19.07;;;12.40;;
16524;SDS011;8375;33.594;-117.718;2023-08-24T12:13:45;21.13;;;12.93;;
16524;SDS011;8375;33.594;-117.718;2023-08-24T12:16:18;20.97;;;13.80;;
16524;SDS011;8375;33.594;-117.718;2023-08-24T12:18:52;20.80;;;12.73;;
16524;SDS011;8375;33.594;-117.718;2023-08-24T12:21:23;18.40;;;12.83;;
16524;SDS011;8375;33.594;-117.718;2023-08-24T12:23:55;22.07;;;13.87;;
16524;SDS011;8375;33.594;-117.718;2023-08-24T12:26:24;22.63;;;13.17;;
16524;SDS011;8375;33.594;-117.718;2023-08-24T12:28:55;18.73;;;12.83;;
16524;SDS011;8375;33.594;-117.718;2023-08-24T12:31:30;22.00;;;13.67;;
16524;SDS011;8375;33.594;-117.718;2023-08-24T12:33:59;18.97;;;13.13;;
16524;SDS011;8375;33.594;-117.718;2023-08-24T12:36:31;21.57;;;13.97;;
16524;SDS011;8375;33.594;-117.718;2023-08-24T12:39:01;20.80;;;13.53;;
16524;SDS011;8375;33.594;-117.718;2023-08-24T12:41:31;21.30;;;13.13;;
16524;SDS011;8375;33.594;-117.718;2023-08-24T12:44:00;24.67;;;14.23;;
16524;SDS011;8375;33.594;-117.718;2023-08-24T12:46:32;21.83;;;12.90;;
16524;SDS011;8375;33.594;-117.718;2023-08-24T12:49:02;24.23;;;13.07;;
16524;SDS011;8375;33.594;-117.718;2023-08-24T12:51:31;21.73;;;13.73;;
16524;SDS011;8375;33.594;-117.718;2023-08-24T12:53:59;22.57;;;13.07;;
16524;SDS011;8375;33.594;-117.718;2023-08-24T12:56:28;21.37;;;12.97;;
16524;SDS011;8375;33.594;-117.718;2023-08-24T12:58:57;22.40;;;13.43;;
16524;SDS011;8375;33.594;-117.718;2023-08-24T13:01:25;22.07;;;12.90;;
16524;SDS011;8375;33.594;-117.718;2023-08-24T13:03:56;26.23;;;14.43;;
16524;SDS011;8375;33.594;-117.718;2023-08-24T13:06:24;18.60;;;12.60;;
16524;SDS011;8375;33.594;-117.718;2023-08-24T13:08:53;23.43;;;12.37;;
16524;SDS011;8375;33.594;-117.718;2023-08-24T13:11:22;18.90;;;12.53;;
16524;SDS011;8375;33.594;-117.718;2023-08-24T13:13:51;18.03;;;12.17;;
16524;SDS011;8375;33.594;-117.718;2023-08-24T13:16:20;20.50;;;13.27;;
16524;SDS011;8375;33.594;-117.718;2023-08-24T13:18:48;20.40;;;12.47;;
16524;SDS011;8375;33.594;-117.718;2023-08-24T13:21:19;22.37;;;13.60;;
16524;SDS011;8375;33.594;-117.718;2023-08-24T13:23:48;17.50;;;12.80;;
16524;SDS011;8375;33.594;-117.718;2023-08-24T13:26:17;18.47;;;12.60;;
16524;SDS011;8375;33.594;-117.718;2023-08-24T13:28:47;23.13;;;13.13;;
16524;SDS011;8375;33.594;-117.718;2023-08-24T13:31:15;20.20;;;13.20;;
16524;SDS011;8375;33.594;-117.718;2023-08-24T13:33:45;20.60;;;12.63;;
16524;SDS011;8375;33.594;-117.718;2023-08-24T13:36:14;19.53;;;12.43;;
16524;SDS011;8375;33.594;-117.718;2023-08-24T13:38:44;21.07;;;13.03;;
16524;SDS011;8375;33.594;-117.718;2023-08-24T13:41:15;22.73;;;13.30;;
16524;SDS011;8375;33.594;-117.718;2023-08-24T13:43:44;21.70;;;13.57;;
16524;SDS011;8375;33.594;-117.718;2023-08-24T13:46:13;19.30;;;12.80;;
16524;SDS011;8375;33.594;-117.718;2023-08-24T13:48:41;19.97;;;13.13;;
16524;SDS011;8375;33.594;-117.718;2023-08-24T13:51:10;18.67;;;12.37;;
16524;SDS011;8375;33.594;-117.718;2023-08-24T13:53:39;22.63;;;12.40;;
16524;SDS011;8375;33.594;-117.718;2023-08-24T13:56:12;21.23;;;12.00;;
16524;SDS011;8375;33.594;-117.718;2023-08-24T13:58:40;20.47;;;13.20;;
16524;SDS011;8375;33.594;-117.718;2023-08-24T14:01:09;19.87;;;12.27;;
16524;SDS011;8375;33.594;-117.718;2023-08-24T14:03:38;16.03;;;11.63;;
16524;SDS011;8375;33.594;-117.718;2023-08-24T14:06:08;22.53;;;12.57;;
16524;SDS011;8375;33.594;-117.718;2023-08-24T14:08:37;20.00;;;12.60;;
16524;SDS011;8375;33.594;-117.718;2023-08-24T14:11:06;18.33;;;11.80;;
16524;SDS011;8375;33.594;-117.718;2023-08-24T14:13:37;19.63;;;12.47;;
16524;SDS011;8375;33.594;-117.718;2023-08-24T14:16:05;19.87;;;12.10;;
16524;SDS011;8375;33.594;-117.718;2023-08-24T14:18:34;20.57;;;12.43;;
16524;SDS011;8375;33.594;-117.718;2023-08-24T14:21:03;22.40;;;12.87;;
16524;SDS011;8375;33.594;-117.718;2023-08-24T14:23:32;23.73;;;13.27;;